Eglin AFB Auxiliary Field Crestview Okaloosa Florida US
ICAO: KEGI
IATA: EGI
Category: Medium
Scheduled Services: No

Elevation: 191 ft
TransAlt. 18000 ft.

Airport Communications:
APP:37.915
APP:125.1
DEP:120.9
GND:25.112
COMD POST:150.6
PTD:139.3
TWR:133.2

KEGI Zoom In..

Runways:

(A) RW 18 length 8025 ft width 150 ft
ILS 111.70 / hdg 180

(B) RW 36 length 8025 ft width 150 ft
---- / hdg 360

Location; KEGI
Day. 23 / Time. 07.56 Zulu
* Altimeter: 29.77
* Temperature: 23° c. 73.4°f.
* Wind from: 320° Speed 03 kn.
Dewpoint: 22° c.
Visibility: 10 Statute Miles.
Clouds: Clear (automated report).

KEGI 230756Z AUTO 32003KT 10SM CLR 23/22 A2977 RMK AO2 SLP080 T02330223 FZRANO $


Wind From 320°
Speed 03 kn.

 
 
jpsmedia.com for Web Design worldairports.se 2018   terms of use